Time;durP1;ratioP1;P1;durP2;ratioP2;P2;SDS_P1;SDS_P2;PMS_P1;PMS_P2;Temp;Humidity;BMP_temperature;BMP_pressure;BME280_temperature;BME280_humidity;BME280_pressure;Samples;Min_cycle;Max_cycle;Signal;HPM_P1;HPM_P2
2022/07/08 00:00:42;;;;;;;9.00;1.23;;;15.10;99.90;;;;;;4993596;28;20053;-86
2022/07/08 00:03:28;;;;;;;11.68;1.73;;;15.10;99.90;;;;;;4976064;28;20050;-85
2022/07/08 00:06:14;;;;;;;10.73;1.10;;;15.10;99.90;;;;;;4976307;28;20065;-85
2022/07/08 00:09:01;;;;;;;6.70;1.15;;;15.20;99.90;;;;;;4981700;28;20450;-85
2022/07/08 00:11:47;;;;;;;9.07;1.60;;;15.20;99.90;;;;;;4979592;28;20046;-85
2022/07/08 00:14:33;;;;;;;12.05;2.78;;;15.10;99.90;;;;;;4994212;28;20054;-85
2022/07/08 00:17:20;;;;;;;9.68;1.70;;;15.20;99.90;;;;;;4993377;28;20391;-85
2022/07/08 00:20:06;;;;;;;11.82;1.50;;;15.20;99.90;;;;;;4977365;28;20052;-85
2022/07/08 00:22:53;;;;;;;8.27;1.85;;;15.20;99.90;;;;;;4993667;28;20057;-85
2022/07/08 00:25:39;;;;;;;9.23;1.45;;;15.10;99.90;;;;;;4985202;28;20069;-85
2022/07/08 00:28:25;;;;;;;14.48;1.77;;;15.10;99.90;;;;;;4975906;28;20054;-84
2022/07/08 00:31:11;;;;;;;11.27;1.88;;;15.10;99.90;;;;;;4993108;28;20053;-85
2022/07/08 00:33:58;;;;;;;11.55;1.65;;;15.00;99.90;;;;;;4962770;28;20054;-85
2022/07/08 00:36:44;;;;;;;9.40;1.58;;;15.00;99.90;;;;;;4993541;28;20058;-86
2022/07/08 00:39:30;;;;;;;11.35;1.63;;;15.00;99.90;;;;;;4966919;28;20042;-85
2022/07/08 00:42:16;;;;;;;9.52;1.83;;;15.00;99.90;;;;;;4997685;28;20046;-88
2022/07/08 00:45:03;;;;;;;11.77;2.67;;;14.90;99.90;;;;;;4976804;28;20146;-86
2022/07/08 00:47:49;;;;;;;8.75;1.50;;;14.90;99.90;;;;;;4982054;28;20058;-86
2022/07/08 00:50:35;;;;;;;7.28;1.20;;;14.80;99.90;;;;;;4993713;28;20065;-85
2022/07/08 00:53:22;;;;;;;5.10;1.40;;;14.80;99.90;;;;;;4965302;28;20078;-85
2022/07/08 00:56:09;;;;;;;9.10;1.23;;;14.70;99.90;;;;;;4975786;28;20089;-85
2022/07/08 00:58:56;;;;;;;12.48;1.70;;;14.70;99.90;;;;;;4992910;28;20090;-82
2022/07/08 01:01:42;;;;;;;7.05;1.85;;;14.70;99.90;;;;;;4992531;28;20057;-83
2022/07/08 01:04:30;;;;;;;7.53;1.17;;;14.60;99.90;;;;;;4992449;28;20057;-85
2022/07/08 01:07:17;;;;;;;9.95;1.30;;;14.60;99.90;;;;;;4976270;28;20057;-85
2022/07/08 01:10:04;;;;;;;10.48;1.63;;;14.60;99.90;;;;;;4998017;28;20069;-84
2022/07/08 01:12:50;;;;;;;13.25;1.65;;;14.50;99.90;;;;;;4975314;28;20054;-85
2022/07/08 01:15:36;;;;;;;11.48;1.85;;;14.50;99.90;;;;;;4992088;28;20050;-84
2022/07/08 01:18:28;;;;;;;16.30;1.95;;;14.50;99.90;;;;;;4974819;28;20058;-84
2022/07/08 01:21:14;;;;;;;12.00;1.63;;;14.50;99.90;;;;;;4992482;28;20061;-83
2022/07/08 01:24:00;;;;;;;10.55;1.95;;;14.50;99.90;;;;;;4995528;28;20450;-86
2022/07/08 01:26:47;;;;;;;10.40;1.55;;;14.50;99.90;;;;;;4994775;28;20046;-84
2022/07/08 01:29:33;;;;;;;11.57;2.15;;;14.50;99.90;;;;;;4992589;28;20050;-85
2022/07/08 01:32:19;;;;;;;10.13;1.50;;;14.50;99.90;;;;;;4975433;28;20054;-84
2022/07/08 01:35:06;;;;;;;11.35;2.30;;;14.50;99.90;;;;;;4994156;28;20058;-85
2022/07/08 01:37:52;;;;;;;8.98;1.42;;;14.60;99.90;;;;;;4996772;28;20050;-85
2022/07/08 01:40:38;;;;;;;10.07;1.50;;;14.60;99.90;;;;;;4977487;28;20192;-85
2022/07/08 01:43:25;;;;;;;6.03;1.40;;;14.50;99.90;;;;;;4995586;28;20054;-83
2022/07/08 01:46:11;;;;;;;13.52;1.48;;;14.50;99.90;;;;;;4992908;28;20042;-86
2022/07/08 01:48:57;;;;;;;9.43;1.20;;;14.50;99.90;;;;;;4991563;28;20085;-85
2022/07/08 01:51:44;;;;;;;12.35;1.88;;;14.50;99.90;;;;;;4992149;28;20105;-86
2022/07/08 01:54:31;;;;;;;9.88;1.90;;;14.50;99.90;;;;;;4992885;28;20057;-86
2022/07/08 01:57:18;;;;;;;12.88;1.70;;;14.50;99.90;;;;;;4976577;28;20088;-86
2022/07/08 02:00:06;;;;;;;7.95;1.35;;;14.50;99.90;;;;;;4960898;28;20533;-86
2022/07/08 02:02:52;;;;;;;12.68;1.63;;;14.50;99.90;;;;;;4994899;28;20050;-86
2022/07/08 02:05:38;;;;;;;11.93;2.22;;;14.50;99.90;;;;;;4973508;28;20058;-85
2022/07/08 02:08:24;;;;;;;6.55;1.40;;;14.50;99.90;;;;;;4991980;28;20046;-87
2022/07/08 02:14:15;;;;;;;12.17;1.43;;;14.50;99.90;;;;;;4975406;28;20478;-85
2022/07/08 02:17:02;;;;;;;12.30;1.65;;;14.50;99.90;;;;;;4973808;28;20082;-85
2022/07/08 02:19:48;;;;;;;9.73;1.90;;;14.60;99.90;;;;;;4973931;28;20073;-85
2022/07/08 02:22:35;;;;;;;13.85;3.22;;;14.60;99.90;;;;;;4974870;28;20046;-85
2022/07/08 02:25:21;;;;;;;13.63;1.75;;;14.60;99.90;;;;;;4962122;28;20208;-85
2022/07/08 02:28:07;;;;;;;10.00;1.77;;;14.60;99.90;;;;;;4972805;28;20399;-86
2022/07/08 02:30:53;;;;;;;8.18;1.65;;;14.60;99.90;;;;;;4991889;28;20521;-85
2022/07/08 02:33:39;;;;;;;13.10;1.50;;;14.60;99.90;;;;;;4974523;28;20144;-86
2022/07/08 02:36:25;;;;;;;9.90;1.88;;;14.60;99.90;;;;;;4981482;28;20054;-85
2022/07/08 02:39:14;;;;;;;9.18;2.05;;;14.60;99.90;;;;;;4975424;28;20046;-86
2022/07/08 02:42:00;;;;;;;9.90;1.52;;;14.60;99.90;;;;;;4963850;28;20053;-86
2022/07/08 02:44:46;;;;;;;11.82;2.00;;;14.60;99.90;;;;;;4991361;28;20478;-86
2022/07/08 02:47:33;;;;;;;9.85;1.80;;;14.60;99.90;;;;;;4991168;28;20517;-85
2022/07/08 02:50:19;;;;;;;9.48;1.73;;;14.60;99.90;;;;;;4974255;28;20061;-85
2022/07/08 02:53:05;;;;;;;13.27;2.17;;;14.70;99.90;;;;;;4974753;28;20046;-85
2022/07/08 02:55:51;;;;;;;13.25;1.75;;;14.70;99.90;;;;;;4977701;28;20049;-84
2022/07/08 02:58:38;;;;;;;11.35;2.78;;;14.70;99.90;;;;;;4977515;28;20050;-84
2022/07/08 03:01:25;;;;;;;13.50;1.90;;;14.70;99.90;;;;;;4975108;28;20061;-85
2022/07/08 03:04:12;;;;;;;12.68;2.75;;;14.70;99.90;;;;;;4948770;28;20057;-85
2022/07/08 03:06:58;;;;;;;10.07;2.03;;;14.60;99.90;;;;;;4980118;28;20750;-86
2022/07/08 03:09:44;;;;;;;12.32;2.60;;;14.60;99.90;;;;;;4968539;28;20058;-85
2022/07/08 03:12:30;;;;;;;12.18;2.05;;;14.60;99.90;;;;;;5004050;28;20057;-83
2022/07/08 03:15:16;;;;;;;13.55;2.15;;;14.60;99.90;;;;;;5004987;28;20046;-84
2022/07/08 03:18:03;;;;;;;13.43;2.28;;;14.70;99.90;;;;;;4987082;28;20054;-86
2022/07/08 03:20:49;;;;;;;13.05;2.03;;;14.70;99.90;;;;;;4973510;28;20554;-85
2022/07/08 03:23:35;;;;;;;11.25;2.92;;;14.70;99.90;;;;;;4976685;28;20525;-85
2022/07/08 03:26:21;;;;;;;11.27;2.20;;;14.80;99.90;;;;;;4974385;28;20054;-87
2022/07/08 03:29:08;;;;;;;13.25;2.33;;;14.80;99.90;;;;;;4995704;28;20055;-86
2022/07/08 03:31:54;;;;;;;19.48;3.00;;;14.90;99.90;;;;;;4992321;28;20105;-85
2022/07/08 03:34:40;;;;;;;15.75;2.03;;;14.90;99.90;;;;;;4992294;28;20050;-86
2022/07/08 03:37:26;;;;;;;9.35;1.90;;;15.00;99.90;;;;;;4978342;28;20051;-85
2022/07/08 03:43:17;;;;;;;10.13;2.08;;;15.00;99.90;;;;;;4995113;28;20498;-85
2022/07/08 03:46:04;;;;;;;18.88;2.90;;;15.00;99.90;;;;;;4976787;28;20053;-86
2022/07/08 03:48:50;;;;;;;18.10;1.83;;;15.10;99.90;;;;;;4965684;28;20073;-84
2022/07/08 03:51:36;;;;;;;8.32;1.88;;;15.10;99.90;;;;;;4994810;28;20499;-85
2022/07/08 03:54:22;;;;;;;8.85;2.05;;;15.10;99.90;;;;;;4996792;28;20089;-85
2022/07/08 03:57:08;;;;;;;7.85;1.73;;;15.20;99.90;;;;;;4976728;28;20772;-86
2022/07/08 03:59:54;;;;;;;19.38;2.70;;;15.20;99.90;;;;;;4994281;28;20124;-84
2022/07/08 04:02:41;;;;;;;15.77;2.97;;;15.20;99.90;;;;;;4976587;28;20108;-85
2022/07/08 04:05:27;;;;;;;12.80;2.10;;;15.30;99.90;;;;;;4993797;28;20050;-86
2022/07/08 04:08:13;;;;;;;12.27;1.83;;;15.30;99.90;;;;;;4981313;28;20053;-86
2022/07/08 04:11:00;;;;;;;12.85;2.42;;;15.30;99.90;;;;;;4994052;28;20053;-85
2022/07/08 04:13:46;;;;;;;7.72;2.00;;;15.30;99.90;;;;;;4994319;28;20053;-85
2022/07/08 04:16:32;;;;;;;13.77;2.00;;;15.40;99.90;;;;;;4993252;28;20164;-86
2022/07/08 04:19:18;;;;;;;10.93;2.15;;;15.40;99.90;;;;;;4977515;28;20057;-85
2022/07/08 04:22:04;;;;;;;12.88;2.38;;;15.40;99.90;;;;;;4979237;28;20109;-86
2022/07/08 04:24:50;;;;;;;6.35;2.08;;;15.50;99.90;;;;;;4978563;28;20054;-87
2022/07/08 04:27:37;;;;;;;7.03;2.13;;;15.50;99.90;;;;;;4979240;28;20057;-88
2022/07/08 04:30:23;;;;;;;11.00;2.67;;;15.60;99.90;;;;;;4996798;28;20050;-86
2022/07/08 04:33:09;;;;;;;12.85;1.55;;;15.60;99.90;;;;;;4996847;28;20073;-86
2022/07/08 04:35:55;;;;;;;14.52;2.22;;;15.60;99.90;;;;;;4980922;28;20051;-86
2022/07/08 04:38:41;;;;;;;13.15;2.20;;;15.60;99.90;;;;;;4996365;28;20406;-86
2022/07/08 04:41:28;;;;;;;11.50;2.17;;;15.70;99.90;;;;;;4994753;28;20124;-87
2022/07/08 04:44:14;;;;;;;17.65;2.33;;;15.70;99.90;;;;;;4994102;28;20120;-86
2022/07/08 04:47:00;;;;;;;8.38;1.52;;;15.80;99.90;;;;;;4975189;28;20074;-86
2022/07/08 04:49:47;;;;;;;9.45;1.90;;;15.80;99.90;;;;;;4994165;28;20051;-87
2022/07/08 04:52:33;;;;;;;11.38;2.47;;;15.80;99.90;;;;;;4995849;28;20058;-86
2022/07/08 04:55:28;;;;;;;13.27;2.13;;;15.90;99.90;;;;;;4992798;28;20058;-86
2022/07/08 04:58:14;;;;;;;14.68;2.50;;;15.90;99.90;;;;;;4977609;28;20502;-86
2022/07/08 05:01:00;;;;;;;12.50;2.15;;;16.00;99.90;;;;;;4994905;28;20500;-86
2022/07/08 05:03:47;;;;;;;12.82;2.25;;;16.00;99.90;;;;;;4994583;28;20089;-86
2022/07/08 05:06:33;;;;;;;12.55;1.73;;;16.10;99.90;;;;;;4996628;28;20077;-86
2022/07/08 05:09:19;;;;;;;13.50;2.53;;;16.10;99.90;;;;;;4994340;28;20057;-87
2022/07/08 05:12:05;;;;;;;15.52;1.85;;;16.10;99.90;;;;;;4996545;28;20053;-85
2022/07/08 05:14:51;;;;;;;13.75;2.30;;;16.10;99.90;;;;;;4965273;28;20054;-83
2022/07/08 05:17:38;;;;;;;12.07;2.55;;;16.20;99.90;;;;;;4995526;28;20053;-86
2022/07/08 05:20:25;;;;;;;11.73;1.92;;;16.30;99.90;;;;;;4981622;28;20046;-85
2022/07/08 05:23:11;;;;;;;8.50;1.83;;;16.30;99.90;;;;;;4977891;28;20434;-85
2022/07/08 05:25:57;;;;;;;8.32;1.77;;;16.30;99.90;;;;;;4981728;28;20061;-85
2022/07/08 05:28:44;;;;;;;12.20;2.33;;;16.30;99.90;;;;;;4975269;28;20062;-84
2022/07/08 05:31:30;;;;;;;15.10;1.85;;;16.40;99.90;;;;;;4993636;28;20089;-85
2022/07/08 05:34:16;;;;;;;9.40;1.60;;;16.40;99.90;;;;;;4998577;28;20141;-85
2022/07/08 05:37:02;;;;;;;12.82;2.25;;;16.50;99.90;;;;;;4992671;28;20058;-85
2022/07/08 05:39:49;;;;;;;16.92;2.22;;;16.50;99.90;;;;;;4977032;28;20093;-85
2022/07/08 05:42:35;;;;;;;7.68;2.58;;;16.50;99.90;;;;;;4993693;28;20566;-83
2022/07/08 05:45:21;;;;;;;11.13;2.13;;;16.50;99.90;;;;;;4993237;28;20049;-86
2022/07/08 05:48:08;;;;;;;13.57;2.13;;;16.60;99.90;;;;;;4968073;28;20085;-86
2022/07/08 05:50:54;;;;;;;12.38;1.95;;;16.60;99.90;;;;;;4992368;28;20053;-86
2022/07/08 05:53:40;;;;;;;13.27;1.70;;;16.70;99.90;;;;;;4974468;28;20054;-86
2022/07/08 05:56:27;;;;;;;6.25;1.42;;;16.70;99.90;;;;;;4975419;28;20126;-87
2022/07/08 05:59:13;;;;;;;11.40;1.92;;;16.70;99.90;;;;;;4964834;28;20062;-86
2022/07/08 06:02:00;;;;;;;11.43;2.10;;;16.80;99.90;;;;;;4979975;28;20491;-84
2022/07/08 06:04:46;;;;;;;7.82;1.88;;;16.80;99.90;;;;;;4977813;28;20061;-86
2022/07/08 06:07:35;;;;;;;7.40;1.27;;;16.80;99.90;;;;;;4992572;28;20148;-87
2022/07/08 06:10:21;;;;;;;10.60;1.88;;;16.80;99.90;;;;;;4963022;28;20046;-86
2022/07/08 06:13:08;;;;;;;8.57;2.05;;;16.80;99.90;;;;;;4960986;28;20575;-86
2022/07/08 06:15:54;;;;;;;9.85;1.80;;;16.90;99.90;;;;;;4992772;28;20054;-86
2022/07/08 06:18:40;;;;;;;9.90;2.38;;;17.10;99.90;;;;;;4977788;28;20200;-86
2022/07/08 06:21:26;;;;;;;10.82;2.03;;;17.40;99.90;;;;;;4994259;28;20051;-86
2022/07/08 06:24:13;;;;;;;8.95;1.90;;;17.70;99.90;;;;;;4991092;28;20078;-86
2022/07/08 06:26:59;;;;;;;12.73;2.40;;;17.70;99.90;;;;;;4961512;28;20093;-85
2022/07/08 06:29:45;;;;;;;9.23;2.00;;;17.60;99.90;;;;;;4960974;28;20486;-87
2022/07/08 06:32:31;;;;;;;11.07;2.10;;;17.50;99.90;;;;;;4993112;28;20141;-85
2022/07/08 06:35:17;;;;;;;9.15;2.05;;;17.60;99.90;;;;;;4973977;28;20069;-85
2022/07/08 06:38:03;;;;;;;11.70;2.75;;;17.70;99.90;;;;;;4972927;28;20058;-86
2022/07/08 06:40:49;;;;;;;11.73;2.28;;;17.80;99.90;;;;;;4991836;28;20165;-85
2022/07/08 06:43:36;;;;;;;10.77;2.05;;;18.00;99.90;;;;;;4973527;28;20507;-85
2022/07/08 06:46:22;;;;;;;10.75;2.28;;;18.10;99.90;;;;;;4991626;28;20141;-86
2022/07/08 06:49:08;;;;;;;10.93;3.30;;;18.10;99.90;;;;;;4995347;28;20054;-85
2022/07/08 06:51:54;;;;;;;8.57;1.85;;;18.20;99.90;;;;;;4973650;28;20054;-85
2022/07/08 06:54:41;;;;;;;9.38;2.80;;;18.20;99.90;;;;;;4973749;28;20140;-85
2022/07/08 06:57:27;;;;;;;13.95;3.22;;;18.40;99.90;;;;;;4992264;28;20057;-85
2022/07/08 07:00:14;;;;;;;11.02;2.20;;;18.40;99.90;;;;;;4992852;28;20057;-86
2022/07/08 07:03:00;;;;;;;8.75;2.60;;;18.50;99.90;;;;;;4993686;28;20062;-85
2022/07/08 07:05:46;;;;;;;10.82;2.28;;;18.50;99.90;;;;;;4947876;28;20108;-85
2022/07/08 07:08:32;;;;;;;12.05;2.45;;;18.50;99.90;;;;;;4990924;28;20057;-85
2022/07/08 07:11:19;;;;;;;12.27;2.72;;;18.50;99.90;;;;;;4991115;28;20074;-85
2022/07/08 07:14:06;;;;;;;10.75;1.90;;;18.70;99.90;;;;;;4976046;28;20050;-83
2022/07/08 07:16:53;;;;;;;11.02;2.40;;;18.80;99.90;;;;;;4986486;28;20081;-84
2022/07/08 07:19:39;;;;;;;9.02;2.17;;;18.90;99.90;;;;;;4978415;28;20105;-84
2022/07/08 07:22:25;;;;;;;9.43;2.25;;;19.00;99.90;;;;;;4982207;28;20042;-83
2022/07/08 07:25:11;;;;;;;10.05;2.65;;;19.10;99.90;;;;;;4978583;28;20498;-84
2022/07/08 07:27:57;;;;;;;14.57;2.85;;;19.20;99.90;;;;;;4979180;28;20465;-83
2022/07/08 07:30:43;;;;;;;9.15;2.13;;;19.20;99.90;;;;;;4969932;28;20141;-85
2022/07/08 07:33:30;;;;;;;18.23;4.00;;;19.20;99.90;;;;;;4995145;28;20077;-84
2022/07/08 07:36:16;;;;;;;14.95;2.53;;;19.20;99.90;;;;;;4995629;28;20085;-85
2022/07/08 07:39:02;;;;;;;9.25;3.10;;;19.30;99.90;;;;;;4980965;28;20402;-83
2022/07/08 07:41:49;;;;;;;12.02;2.50;;;19.30;99.90;;;;;;4995147;28;20462;-83
2022/07/08 07:44:35;;;;;;;12.00;2.25;;;19.30;99.90;;;;;;4970153;28;20046;-85
2022/07/08 07:47:21;;;;;;;15.10;2.30;;;19.40;99.90;;;;;;4963832;28;20418;-84
2022/07/08 07:50:08;;;;;;;12.48;2.40;;;19.50;99.90;;;;;;4995331;28;20047;-84
2022/07/08 07:52:54;;;;;;;13.13;2.60;;;19.60;99.90;;;;;;4963858;28;20058;-85
2022/07/08 07:55:40;;;;;;;13.68;2.63;;;19.80;99.90;;;;;;4996141;28;20074;-85
2022/07/08 07:58:27;;;;;;;14.10;2.65;;;20.00;99.90;;;;;;4990410;28;20219;-86
2022/07/08 08:01:13;;;;;;;16.70;2.47;;;20.10;99.90;;;;;;4998023;28;20051;-84
2022/07/08 08:03:59;;;;;;;6.00;2.00;;;20.20;99.90;;;;;;4987707;28;20526;-84
2022/07/08 08:06:45;;;;;;;14.65;2.65;;;20.30;99.90;;;;;;4994190;28;20046;-85
2022/07/08 08:09:31;;;;;;;10.38;1.98;;;20.30;99.90;;;;;;4994005;28;20061;-83
2022/07/08 08:12:17;;;;;;;11.23;2.00;;;20.30;99.90;;;;;;4981861;28;20414;-84
2022/07/08 08:15:04;;;;;;;7.28;2.45;;;20.20;99.90;;;;;;4994530;28;20077;-84
2022/07/08 08:17:51;;;;;;;9.10;2.47;;;20.20;99.90;;;;;;4975609;28;20054;-85
2022/07/08 08:20:37;;;;;;;14.60;2.33;;;20.30;99.90;;;;;;4977190;28;20085;-85
2022/07/08 08:23:23;;;;;;;9.20;1.88;;;20.20;99.90;;;;;;4979321;28;20494;-84
2022/07/08 08:26:09;;;;;;;12.15;2.60;;;20.20;99.90;;;;;;4978691;28;20205;-84
2022/07/08 08:28:55;;;;;;;9.10;2.40;;;20.40;99.90;;;;;;4976687;28;20105;-84
2022/07/08 08:31:41;;;;;;;8.00;1.83;;;20.40;99.90;;;;;;4994475;28;20046;-84
2022/07/08 08:34:27;;;;;;;8.95;1.45;;;20.70;99.90;;;;;;4994390;28;20061;-83
2022/07/08 08:37:14;;;;;;;10.73;2.08;;;20.90;99.90;;;;;;4992436;28;20050;-85
2022/07/08 08:40:05;;;;;;;8.18;1.73;;;20.80;99.90;;;;;;4995105;28;20073;-86
2022/07/08 08:42:51;;;;;;;11.07;2.05;;;20.90;99.90;;;;;;4966417;28;20047;-85
2022/07/08 08:45:38;;;;;;;10.63;1.60;;;21.00;99.90;;;;;;4975645;28;20046;-85
2022/07/08 08:48:25;;;;;;;12.68;1.77;;;21.10;99.90;;;;;;4993542;28;20108;-84
2022/07/08 08:51:13;;;;;;;11.73;2.42;;;21.10;99.90;;;;;;4993631;28;20042;-86
2022/07/08 08:54:04;;;;;;;11.23;1.77;;;21.00;99.90;;;;;;4975106;28;20144;-84
2022/07/08 08:56:50;;;;;;;8.85;1.88;;;21.10;99.90;;;;;;4978185;28;20093;-85
2022/07/08 08:59:37;;;;;;;13.60;2.28;;;21.30;99.90;;;;;;4977605;28;20548;-87
2022/07/08 09:02:24;;;;;;;9.45;2.35;;;21.10;99.90;;;;;;4979494;28;20050;-85
2022/07/08 09:05:10;;;;;;;11.32;1.50;;;21.30;99.90;;;;;;4980603;28;20046;-83
2022/07/08 09:07:56;;;;;;;12.40;2.80;;;21.40;99.90;;;;;;4978714;28;20085;-79
2022/07/08 09:10:42;;;;;;;11.63;2.30;;;21.40;99.90;;;;;;4997761;28;20082;-77
2022/07/08 09:13:30;;;;;;;7.95;1.92;;;21.40;99.90;;;;;;4993951;28;20062;-79
2022/07/08 09:16:17;;;;;;;7.63;1.50;;;21.50;99.90;;;;;;4992409;28;20056;-79
2022/07/08 09:19:13;;;;;;;7.22;1.60;;;21.70;99.90;;;;;;4994777;28;20053;-81
2022/07/08 09:21:59;;;;;;;7.15;1.88;;;21.70;99.90;;;;;;4992780;28;20050;-81
2022/07/08 09:24:45;;;;;;;9.00;1.40;;;21.80;99.90;;;;;;4995895;28;20137;-80
2022/07/08 09:27:31;;;;;;;7.15;1.92;;;21.90;99.90;;;;;;4976200;28;20042;-80
2022/07/08 09:30:18;;;;;;;5.18;1.63;;;21.90;99.90;;;;;;4975559;28;20070;-81
2022/07/08 09:33:04;;;;;;;7.50;2.00;;;22.00;99.90;;;;;;4978706;28;20197;-81
2022/07/08 09:35:51;;;;;;;10.23;2.28;;;22.00;99.90;;;;;;4963264;28;20518;-80
2022/07/08 09:38:38;;;;;;;10.45;2.20;;;22.00;99.90;;;;;;4991741;28;20101;-81
2022/07/08 09:41:24;;;;;;;10.45;1.77;;;21.90;99.90;;;;;;4992979;28;20128;-81
2022/07/08 09:44:15;;;;;;;6.60;1.50;;;21.80;99.90;;;;;;4977684;28;20050;-78
2022/07/08 09:47:11;;;;;;;9.30;2.00;;;21.70;99.90;;;;;;4974644;28;20050;-77
2022/07/08 09:49:57;;;;;;;10.80;2.13;;;21.80;99.90;;;;;;4993751;28;20061;-77
2022/07/08 09:52:43;;;;;;;8.27;2.00;;;21.70;99.90;;;;;;4991823;28;20133;-78
2022/07/08 09:55:31;;;;;;;9.57;2.08;;;21.80;99.90;;;;;;4991256;28;20550;-78
2022/07/08 09:58:20;;;;;;;8.32;2.35;;;21.60;99.90;;;;;;4990622;28;20401;-78
2022/07/08 10:01:07;;;;;;;9.13;1.92;;;21.70;99.90;;;;;;4973785;28;20054;-80
2022/07/08 10:03:54;;;;;;;8.60;2.35;;;21.70;99.90;;;;;;4976636;28;20122;-76
2022/07/08 10:06:40;;;;;;;17.05;2.30;;;21.90;99.90;;;;;;4990987;28;20573;-79
2022/07/08 10:09:27;;;;;;;10.00;2.17;;;21.70;99.90;;;;;;4974195;28;20050;-79
2022/07/08 10:12:14;;;;;;;22.35;2.60;;;21.80;99.90;;;;;;4989758;28;20065;-75
2022/07/08 10:15:02;;;;;;;27.52;3.17;;;22.00;99.90;;;;;;4992717;28;20148;-82
2022/07/08 10:17:49;;;;;;;18.70;3.33;;;21.90;99.90;;;;;;4973100;28;20058;-83
2022/07/08 10:20:39;;;;;;;8.85;2.00;;;21.80;99.90;;;;;;4976669;28;20053;-81
2022/07/08 10:23:50;;;;;;;8.63;2.35;;;21.80;99.90;;;;;;4977094;28;20466;-79
2022/07/08 10:26:40;;;;;;;8.05;2.50;;;21.70;99.90;;;;;;4973109;28;20482;-82
2022/07/08 10:29:30;;;;;;;11.82;2.33;;;21.90;99.90;;;;;;4991116;28;20054;-81
2022/07/08 10:32:26;;;;;;;10.27;1.80;;;22.10;99.90;;;;;;4990294;28;20053;-81
2022/07/08 10:35:18;;;;;;;12.00;2.47;;;22.20;99.90;;;;;;4960472;28;20081;-82
2022/07/08 10:38:05;;;;;;;8.57;2.13;;;22.40;99.90;;;;;;4990657;28;20058;-80
2022/07/08 10:40:53;;;;;;;7.43;1.90;;;22.70;99.90;;;;;;4991005;28;20050;-79
2022/07/08 10:43:54;;;;;;;7.30;2.10;;;22.90;99.90;;;;;;4974275;28;20085;-80
2022/07/08 10:46:51;;;;;;;9.05;2.00;;;22.70;99.90;;;;;;4973722;28;20054;-77
2022/07/08 10:49:44;;;;;;;8.90;2.70;;;22.60;99.90;;;;;;4983402;28;20414;-79
2022/07/08 10:52:39;;;;;;;8.48;2.22;;;22.80;99.90;;;;;;4969277;28;20085;-79
2022/07/08 10:55:25;;;;;;;;;;;23.10;99.90;;;;;;4998827;28;20060;-82
2022/07/08 10:58:11;;;;;;;8.90;2.40;;;23.40;99.90;;;;;;4977791;28;20416;-85
2022/07/08 11:01:20;;;;;;;10.15;1.85;;;23.50;99.90;;;;;;4998423;28;20042;-83
2022/07/08 11:04:25;;;;;;;8.15;2.40;;;23.40;99.90;;;;;;4980076;28;20201;-80
2022/07/08 11:07:26;;;;;;;8.65;1.80;;;23.40;99.90;;;;;;4976459;28;20050;-81
2022/07/08 11:10:12;;;;;;;8.25;2.28;;;23.40;99.90;;;;;;4979599;28;20046;-81
2022/07/08 11:12:59;;;;;;;10.63;2.03;;;23.50;99.90;;;;;;4994954;28;20407;-82
2022/07/08 11:15:46;;;;;;;10.68;2.17;;;23.40;99.90;;;;;;4978446;28;20088;-81
2022/07/08 11:18:32;;;;;;;12.77;2.03;;;23.70;99.90;;;;;;4980613;28;20100;-85
2022/07/08 11:21:18;;;;;;;5.70;1.65;;;24.20;99.90;;;;;;4995421;28;20050;-86
2022/07/08 11:24:05;;;;;;;8.57;1.77;;;24.10;99.90;;;;;;4982400;28;20042;-83
2022/07/08 11:26:52;;;;;;;7.25;1.70;;;24.20;99.90;;;;;;4983931;28;20141;-83
2022/07/08 11:29:49;;;;;;;8.85;2.05;;;24.30;99.90;;;;;;4996546;28;20050;-85
2022/07/08 11:32:36;;;;;;;7.78;2.25;;;24.30;99.90;;;;;;4980519;28;20410;-76
2022/07/08 11:35:22;;;;;;;14.73;2.35;;;24.00;99.90;;;;;;4994358;28;20046;-83
2022/07/08 11:38:09;;;;;;;10.27;2.67;;;23.70;99.90;;;;;;4994223;28;20050;-79
2022/07/08 11:40:55;;;;;;;10.05;2.20;;;23.70;99.90;;;;;;4976928;28;20108;-80
2022/07/08 11:43:42;;;;;;;9.82;1.98;;;23.80;99.90;;;;;;4994420;28;20038;-81
2022/07/08 11:46:28;;;;;;;6.63;1.40;;;23.90;99.90;;;;;;4976567;28;20139;-81
2022/07/08 11:49:15;;;;;;;10.77;1.88;;;23.50;99.90;;;;;;4979918;28;20384;-80
2022/07/08 11:52:01;;;;;;;9.30;1.88;;;23.40;99.90;;;;;;4976588;28;20137;-78
2022/07/08 11:54:48;;;;;;;8.95;1.80;;;23.40;99.90;;;;;;4977427;28;20086;-79
2022/07/08 11:57:43;;;;;;;8.20;2.22;;;23.60;99.90;;;;;;4977260;28;20050;-77
2022/07/08 12:00:29;;;;;;;15.48;2.40;;;23.70;99.90;;;;;;4963049;28;20141;-79
2022/07/08 12:03:15;;;;;;;8.02;1.90;;;23.60;99.90;;;;;;4993455;28;20050;-78
2022/07/08 12:06:01;;;;;;;9.13;1.65;;;23.70;99.90;;;;;;4993134;28;20053;-79
2022/07/08 12:08:48;;;;;;;9.05;2.00;;;23.80;99.90;;;;;;4963707;28;20402;-81
2022/07/08 12:11:44;;;;;;;12.45;2.58;;;23.80;99.90;;;;;;4992315;28;20056;-79
2022/07/08 12:14:33;;;;;;;9.05;1.90;;;23.80;99.90;;;;;;4994221;28;20124;-78
2022/07/08 12:17:27;;;;;;;13.40;2.83;;;24.20;99.90;;;;;;4964205;28;20054;-78
2022/07/08 12:20:13;;;;;;;10.07;2.50;;;24.30;99.90;;;;;;4981817;28;20058;-80
2022/07/08 12:23:00;;;;;;;8.98;2.30;;;24.40;99.90;;;;;;4996586;28;20046;-80
2022/07/08 12:25:49;;;;;;;7.90;2.10;;;24.50;99.90;;;;;;4995887;28;20058;-79
2022/07/08 12:28:35;;;;;;;11.85;2.83;;;24.30;99.90;;;;;;4982480;28;20050;-81
2022/07/08 12:31:38;;;;;;;7.80;1.85;;;24.50;99.90;;;;;;4976599;28;20050;-81
2022/07/08 12:34:26;;;;;;;8.85;1.88;;;24.30;99.90;;;;;;4975821;28;20570;-81
2022/07/08 12:37:20;;;;;;;7.30;1.50;;;24.30;99.90;;;;;;4993265;28;20062;-83
2022/07/08 12:40:36;;;;;;;11.13;1.80;;;24.40;99.90;;;;;;4992669;28;20046;-83
2022/07/08 12:43:31;;;;;;;11.27;2.10;;;24.40;99.90;;;;;;4994394;28;20042;-80
2022/07/08 12:46:17;;;;;;;11.85;2.50;;;24.80;99.90;;;;;;4995496;28;20046;-82
2022/07/08 12:49:04;;;;;;;13.55;3.63;;;25.10;99.90;;;;;;4993001;28;20053;-82
2022/07/08 12:51:50;;;;;;;8.52;2.05;;;25.80;99.90;;;;;;4994436;28;20435;-80
2022/07/08 12:54:38;;;;;;;10.50;2.67;;;26.00;99.60;;;;;;4980808;28;20042;-82
2022/07/08 12:57:25;;;;;;;13.25;2.25;;;26.50;99.20;;;;;;4977723;28;20058;-80
2022/07/08 13:00:13;;;;;;;12.60;2.97;;;26.30;98.40;;;;;;4976784;28;20077;-79
2022/07/08 13:02:59;;;;;;;8.30;2.22;;;26.10;98.30;;;;;;4974926;28;20065;-79
2022/07/08 13:05:45;;;;;;;9.07;2.53;;;26.40;98.60;;;;;;4993148;28;20043;-79
2022/07/08 13:08:31;;;;;;;13.88;2.50;;;26.70;98.40;;;;;;4975660;28;20056;-78
2022/07/08 13:11:17;;;;;;;11.45;2.22;;;26.10;98.40;;;;;;4996368;28;20057;-78
2022/07/08 13:14:04;;;;;;;13.10;2.40;;;26.10;98.40;;;;;;4993386;28;20521;-80
2022/07/08 13:20:52;;;;;;;7.72;2.38;;;26.00;98.50;;;;;;4992909;28;20041;-81
2022/07/08 13:23:38;;;;;;;11.30;2.03;;;26.60;98.10;;;;;;4977969;28;20510;-79
2022/07/08 13:26:25;;;;;;;7.47;2.00;;;26.50;97.50;;;;;;4993682;28;20136;-86
2022/07/08 13:29:11;;;;;;;10.00;2.45;;;26.60;97.70;;;;;;4975059;28;20052;-78
2022/07/08 13:31:57;;;;;;;8.77;2.38;;;26.80;97.50;;;;;;4997248;28;20084;-79
2022/07/08 13:34:44;;;;;;;11.23;2.53;;;27.20;97.00;;;;;;4992834;28;20525;-76
2022/07/08 13:37:30;;;;;;;8.75;2.08;;;27.00;97.10;;;;;;4992105;28;20092;-84
2022/07/08 13:40:16;;;;;;;8.02;1.65;;;27.30;97.30;;;;;;4978653;28;20089;-81
2022/07/08 13:43:02;;;;;;;11.98;2.67;;;27.80;96.20;;;;;;4977776;28;20046;-79
2022/07/08 13:45:49;;;;;;;6.03;2.00;;;27.30;96.70;;;;;;4994047;28;20039;-83
2022/07/08 13:48:35;;;;;;;6.22;1.75;;;27.80;96.00;;;;;;4976609;28;20050;-80
2022/07/08 13:51:21;;;;;;;7.47;2.08;;;27.70;96.20;;;;;;4992056;28;20165;-77
2022/07/08 13:54:07;;;;;;;9.02;2.38;;;27.90;95.30;;;;;;4973823;28;20042;-83
2022/07/08 13:56:57;;;;;;;10.30;1.80;;;27.90;95.10;;;;;;4959280;28;20465;-84
2022/07/08 13:59:43;;;;;;;8.70;1.75;;;27.90;95.20;;;;;;4993508;28;20057;-83
2022/07/08 14:02:29;;;;;;;8.35;2.30;;;28.10;94.60;;;;;;4975340;28;20522;-78
2022/07/08 14:05:15;;;;;;;8.50;1.73;;;28.30;94.30;;;;;;4994705;28;20050;-80
2022/07/08 14:08:02;;;;;;;10.30;2.42;;;28.20;93.80;;;;;;4974653;28;20058;-82
2022/07/08 14:10:48;;;;;;;7.20;1.70;;;28.50;93.80;;;;;;4991187;28;20065;-81
2022/07/08 14:13:35;;;;;;;8.60;2.25;;;28.20;93.50;;;;;;4974359;28;20129;-79
2022/07/08 14:16:21;;;;;;;8.90;1.90;;;28.20;93.30;;;;;;4974355;28;20049;-77
2022/07/08 14:19:07;;;;;;;11.82;2.35;;;28.40;93.00;;;;;;4974196;28;20042;-79
2022/07/08 14:21:55;;;;;;;7.88;1.63;;;28.50;93.00;;;;;;4975067;28;20487;-79
2022/07/08 14:24:42;;;;;;;8.50;1.40;;;28.50;92.60;;;;;;4977477;28;20110;-74
2022/07/08 14:27:28;;;;;;;8.68;2.33;;;28.60;92.60;;;;;;4992021;28;20046;-81
2022/07/08 14:30:15;;;;;;;10.23;2.17;;;28.80;92.10;;;;;;4973370;28;20058;-82
2022/07/08 14:33:01;;;;;;;7.80;2.22;;;29.00;92.30;;;;;;4979167;28;20544;-80